createdAt,value
2022-11-28T00:01:19.415Z,-23295.22
2022-11-28T00:03:24.833Z,-23290.94
2022-11-28T00:05:27.652Z,-23282.63
2022-11-28T00:07:30.379Z,-23283.44
2022-11-28T00:09:33.360Z,-23286.63
2022-11-28T00:11:36.177Z,-23284.56
2022-11-28T00:13:39.848Z,-23284.88
2022-11-28T00:15:42.626Z,-23288.53
2022-11-28T00:17:45.454Z,-23285.03
2022-11-28T00:19:49.652Z,-23280.88
2022-11-28T00:21:52.335Z,-23285.34
2022-11-28T00:23:55.077Z,-23284.38
2022-11-28T00:25:59.352Z,-23283.44
2022-11-28T00:28:02.008Z,-23285.81
2022-11-28T00:30:05.224Z,-23290.28
2022-11-28T00:32:07.961Z,-23287.91
2022-11-28T00:34:11.129Z,-23289.66
2022-11-28T00:36:15.386Z,-23287.25
2022-11-28T00:38:18.286Z,-23285.66
2022-11-28T00:40:20.984Z,-23284.56
2022-11-28T00:42:23.627Z,-23287.91
2022-11-28T00:44:26.350Z,-23287.41
2022-11-28T00:46:29.077Z,-23286.31
2022-11-28T00:48:33.143Z,-23293.00
2022-11-28T00:50:35.848Z,-23289.50
2022-11-28T00:52:39.908Z,-23290.59
2022-11-28T00:54:42.759Z,-23292.34
2022-11-28T00:56:45.655Z,-23291.72
2022-11-28T00:58:49.560Z,-23290.44
2022-11-28T01:00:52.341Z,-23288.53
2022-11-28T01:02:55.049Z,-23293.00
2022-11-28T01:04:57.719Z,-23288.06
2022-11-28T01:07:00.404Z,-23289.81
2022-11-28T01:09:07.154Z,-23291.25
2022-11-28T01:11:13.085Z,-23288.69
2022-11-28T01:13:15.899Z,-23290.75
2022-11-28T01:15:18.668Z,-23291.88
2022-11-28T01:17:21.397Z,-23294.44
2022-11-28T01:19:24.166Z,-23300.31
2022-11-28T01:21:27.475Z,-23292.53
2022-11-28T01:23:30.193Z,-23292.19
2022-11-28T01:25:34.358Z,-23298.72
2022-11-28T01:27:37.101Z,-23294.75
2022-11-28T01:29:39.776Z,-23293.94
2022-11-28T01:31:42.523Z,-23295.38
2022-11-28T01:33:45.463Z,-23294.09
2022-11-28T01:35:56.128Z,-23287.41
2022-11-28T01:37:58.864Z,-23286.31
2022-11-28T01:40:01.551Z,-23283.59
2022-11-28T01:42:05.849Z,-23283.91
2022-11-28T01:44:47.478Z,-23283.13
2022-11-28T01:46:50.317Z,-23285.34
2022-11-28T01:48:54.795Z,-23283.44
2022-11-28T01:51:00.954Z,-23284.56
2022-11-28T01:53:09.421Z,-23285.81
2022-11-28T01:55:16.283Z,-23287.25
2022-11-28T01:57:23.842Z,-23287.56
2022-11-28T01:59:30.640Z,-23286.78
2022-11-28T02:01:33.358Z,-23289.00
2022-11-28T02:03:42.838Z,-23288.53
2022-11-28T02:05:46.280Z,-23287.25
2022-11-28T02:07:50.867Z,-23292.03
2022-11-28T02:09:53.616Z,-23284.06
2022-11-28T02:12:18.257Z,-23282.47
2022-11-28T02:14:30.865Z,-23283.75
2022-11-28T02:16:51.168Z,-23283.75
2022-11-28T02:19:05.319Z,-23281.84
2022-11-28T02:21:45.034Z,-23282.16
2022-11-28T02:24:29.836Z,-23281.84
2022-11-28T02:27:10.472Z,-23285.66
2022-11-28T02:29:52.449Z,-23283.28
2022-11-28T02:32:19.080Z,-23285.66
2022-11-28T02:34:29.831Z,-23285.34
2022-11-28T02:36:37.137Z,-23284.72
2022-11-28T02:39:00.215Z,-23280.56
2022-11-28T02:41:09.227Z,-23284.38
2022-11-28T02:43:21.792Z,-23285.03
2022-11-28T02:45:32.332Z,-23280.25
2022-11-28T02:47:39.171Z,-23282.16
2022-11-28T02:49:44.895Z,-23276.25
2022-11-28T02:51:53.091Z,-23272.44
2022-11-28T02:53:57.014Z,-23271.16
2022-11-28T02:56:00.679Z,-23272.13
2022-11-28T02:58:03.442Z,-23271.66
2022-11-28T03:00:25.816Z,-23272.59
2022-11-28T03:02:31.307Z,-23279.44
2022-11-28T03:04:47.703Z,-23277.38
2022-11-28T03:06:59.882Z,-23275.63
2022-11-28T03:09:18.518Z,-23271.00
2022-11-28T03:11:26.505Z,-23272.59
2022-11-28T03:13:39.768Z,-23279.28
2022-11-28T03:15:50.636Z,-23272.44
2022-11-28T03:18:03.235Z,-23278.81
2022-11-28T03:20:18.091Z,-23275.00
2022-11-28T03:22:30.951Z,-23279.94
2022-11-28T03:24:37.032Z,-23278.34
2022-11-28T03:26:46.725Z,-23277.38
2022-11-28T03:28:55.251Z,-23271.31
2022-11-28T03:31:01.877Z,-23279.28
2022-11-28T03:33:06.716Z,-23278.03
2022-11-28T03:35:15.044Z,-23270.69
2022-11-28T03:37:21.964Z,-23274.19
2022-11-28T03:39:27.036Z,-23272.28
2022-11-28T03:41:37.996Z,-23272.59
2022-11-28T03:43:45.260Z,-23272.44
2022-11-28T03:45:52.079Z,-23276.44
2022-11-28T03:47:58.822Z,-23276.44
2022-11-28T03:50:07.067Z,-23276.09
2022-11-28T03:52:17.108Z,-23276.44
2022-11-28T03:54:26.770Z,-23271.16
2022-11-28T03:56:39.538Z,-23270.38
2022-11-28T03:58:46.706Z,-23268.78
2022-11-28T04:00:53.990Z,-23265.91
2022-11-28T04:03:12.855Z,-23267.81
2022-11-28T04:05:24.001Z,-23268.63
2022-11-28T04:07:37.849Z,-23271.00
2022-11-28T04:09:47.966Z,-23271.66
2022-11-28T04:11:55.195Z,-23272.75
2022-11-28T04:14:03.811Z,-23272.75
2022-11-28T04:16:14.004Z,-23274.34
2022-11-28T04:18:22.361Z,-23276.44
2022-11-28T04:20:33.415Z,-23277.53
2022-11-28T04:22:43.617Z,-23277.69
2022-11-28T04:24:51.074Z,-23278.19
2022-11-28T04:27:00.269Z,-23281.03
2022-11-28T04:29:06.756Z,-23280.56
2022-11-28T04:31:10.949Z,-23275.94
2022-11-28T04:33:15.554Z,-23274.66
2022-11-28T04:35:24.631Z,-23272.91
2022-11-28T04:37:29.456Z,-23272.28
2022-11-28T04:39:36.102Z,-23269.09
2022-11-28T04:41:42.350Z,-23269.09
2022-11-28T04:43:50.953Z,-23271.00
2022-11-28T04:45:57.313Z,-23272.28
2022-11-28T04:48:00.799Z,-23271.97
2022-11-28T04:50:03.600Z,-23273.06
2022-11-28T04:52:10.882Z,-23276.09
2022-11-28T04:54:18.089Z,-23276.75
2022-11-28T04:56:25.375Z,-23275.47
2022-11-28T04:58:36.440Z,-23276.25
2022-11-28T05:00:40.824Z,-23278.03
2022-11-28T05:02:46.242Z,-23281.84
2022-11-28T05:04:48.965Z,-23285.97
2022-11-28T05:06:52.141Z,-23286.94
2022-11-28T05:08:54.878Z,-23287.56
2022-11-28T05:10:57.695Z,-23288.53
2022-11-28T05:13:01.776Z,-23289.19
2022-11-28T05:15:05.462Z,-23291.09
2022-11-28T05:17:08.631Z,-23284.38
2022-11-28T05:19:11.339Z,-23283.13
2022-11-28T05:21:14.056Z,-23280.25
2022-11-28T05:23:16.768Z,-23279.44
2022-11-28T05:25:19.479Z,-23278.81
2022-11-28T05:27:22.142Z,-23280.72
2022-11-28T05:29:26.203Z,-23281.19
2022-11-28T05:31:29.225Z,-23278.66
2022-11-28T05:33:34.115Z,-23278.66
2022-11-28T05:35:40.168Z,-23278.66
2022-11-28T05:37:42.915Z,-23281.19
2022-11-28T05:39:45.757Z,-23278.66
2022-11-28T05:41:48.605Z,-23275.63
2022-11-28T05:43:51.732Z,-23274.34
2022-11-28T05:45:56.488Z,-23275.94
2022-11-28T05:47:59.245Z,-23278.81
2022-11-28T05:50:01.974Z,-23279.59
2022-11-28T05:52:04.899Z,-23280.09
2022-11-28T05:54:08.093Z,-23280.25
2022-11-28T05:56:13.218Z,-23281.38
2022-11-28T05:58:16.157Z,-23280.56
2022-11-28T06:00:20.077Z,-23280.56
2022-11-28T06:02:24.278Z,-23284.38
2022-11-28T06:04:27.125Z,-23284.06
2022-11-28T06:06:31.820Z,-23284.56
2022-11-28T06:08:34.537Z,-23283.59
2022-11-28T06:10:37.231Z,-23282.31
2022-11-28T06:12:39.985Z,-23281.03
2022-11-28T06:14:42.734Z,-23282.63
2022-11-28T06:16:45.613Z,-23281.38
2022-11-28T06:18:53.073Z,-23282.81
2022-11-28T06:20:55.993Z,-23284.56
2022-11-28T06:22:58.696Z,-23284.72
2022-11-28T06:25:01.460Z,-23285.66
2022-11-28T06:27:04.222Z,-23287.25
2022-11-28T06:29:06.965Z,-23289.19
2022-11-28T06:31:11.664Z,-23290.75
2022-11-28T06:33:14.363Z,-23292.19
2022-11-28T06:35:18.555Z,-23293.00
2022-11-28T06:37:21.293Z,-23293.63
2022-11-28T06:39:23.990Z,-23293.31
2022-11-28T06:41:26.758Z,-23293.78
2022-11-28T06:43:29.597Z,-23295.69
2022-11-28T06:45:32.387Z,-23297.47
2022-11-28T06:47:35.157Z,-23297.94
2022-11-28T06:49:37.854Z,-23299.03
2022-11-28T06:51:42.756Z,-23299.38
2022-11-28T06:53:45.576Z,-23300.31
2022-11-28T06:55:48.778Z,-23303.50
2022-11-28T06:57:51.435Z,-23303.81
2022-11-28T06:59:54.135Z,-23303.81
2022-11-28T07:01:57.698Z,-23305.91
2022-11-28T07:04:00.531Z,-23307.00
2022-11-28T07:06:04.011Z,-23309.09
2022-11-28T07:08:08.354Z,-23309.25
2022-11-28T07:10:11.887Z,-23308.13
2022-11-28T07:12:15.896Z,-23306.38
2022-11-28T07:14:18.617Z,-23308.28
2022-11-28T07:16:22.860Z,-23307.31
2022-11-28T07:18:25.712Z,-23307.97
2022-11-28T07:20:28.505Z,-23306.69
2022-11-28T07:22:31.636Z,-23308.44
2022-11-28T07:24:35.680Z,-23308.28
2022-11-28T07:26:38.402Z,-23308.44
2022-11-28T07:28:41.828Z,-23310.03
2022-11-28T07:30:44.550Z,-23309.56
2022-11-28T07:32:47.244Z,-23310.19
2022-11-28T07:34:50.342Z,-23312.44
2022-11-28T07:36:53.151Z,-23312.75
2022-11-28T07:38:57.334Z,-23313.38
2022-11-28T07:41:06.149Z,-23312.91
2022-11-28T07:43:08.852Z,-23315.59
2022-11-28T07:45:12.408Z,-23318.16
2022-11-28T07:47:15.180Z,-23320.72
2022-11-28T07:49:17.968Z,-23320.38
2022-11-28T07:51:23.925Z,-23318.00
2022-11-28T07:53:26.793Z,-23314.03
2022-11-28T07:55:29.497Z,-23314.03
2022-11-28T07:57:34.149Z,-23314.03
2022-11-28T07:59:37.164Z,-23312.44
2022-11-28T08:01:40.193Z,-23311.16
2022-11-28T08:03:44.677Z,-23308.91
2022-11-28T08:05:49.564Z,-23310.84
2022-11-28T08:07:52.446Z,-23313.38
2022-11-28T08:09:55.211Z,-23314.66
2022-11-28T08:11:57.896Z,-23318.97
2022-11-28T08:14:02.050Z,-23321.03
2022-11-28T08:16:06.791Z,-23322.31
2022-11-28T08:18:09.975Z,-23322.94
2022-11-28T08:20:13.465Z,-23323.56
2022-11-28T08:22:16.227Z,-23323.25
2022-11-28T08:24:18.987Z,-23327.06
2022-11-28T08:26:29.136Z,-23326.75
2022-11-28T08:28:33.257Z,-23328.03
2022-11-28T08:30:37.452Z,-23328.66
2022-11-28T08:32:40.355Z,-23326.13
2022-11-28T08:34:43.244Z,-23328.97
2022-11-28T08:36:47.330Z,-23327.38
2022-11-28T08:39:03.291Z,-23329.94
2022-11-28T08:41:14.082Z,-23331.22
2022-11-28T08:43:16.776Z,-23332.81
2022-11-28T08:45:19.732Z,-23332.97
2022-11-28T08:47:23.877Z,-23334.06
2022-11-28T08:49:26.764Z,-23335.34
2022-11-28T08:51:30.583Z,-23332.47
2022-11-28T08:53:33.647Z,-23333.44
2022-11-28T08:55:40.551Z,-23333.13
2022-11-28T08:57:44.577Z,-23336.94
2022-11-28T08:59:47.304Z,-23339.16
2022-11-28T09:01:50.505Z,-23338.84
2022-11-28T09:03:56.457Z,-23335.66
2022-11-28T09:06:02.595Z,-23334.25
2022-11-28T09:08:10.161Z,-23332.97
2022-11-28T09:10:14.516Z,-23329.63
2022-11-28T09:12:17.541Z,-23331.53
2022-11-28T09:14:20.210Z,-23336.94
2022-11-28T09:16:22.877Z,-23334.41
2022-11-28T09:18:27.040Z,-23331.53
2022-11-28T09:20:31.250Z,-23340.44
2022-11-28T09:22:34.179Z,-23348.22
2022-11-28T09:24:36.906Z,-23332.16
2022-11-28T09:26:39.687Z,-23330.88
2022-11-28T09:28:43.391Z,-23328.97
2022-11-28T09:30:46.233Z,-23330.56
2022-11-28T09:32:49.716Z,-23328.34
2022-11-28T09:34:52.408Z,-23328.34
2022-11-28T09:36:59.697Z,-23329.78
2022-11-28T09:39:05.046Z,-23333.44
2022-11-28T09:41:30.426Z,-23337.56
2022-11-28T09:43:37.598Z,-23335.66
2022-11-28T09:45:41.077Z,-23338.84
2022-11-28T09:47:47.355Z,-23339.50
2022-11-28T09:49:53.445Z,-23349.34
2022-11-28T09:52:03.452Z,-23347.28
2022-11-28T09:54:14.447Z,-23344.59
2022-11-28T09:56:20.468Z,-23350.31
2022-11-28T09:58:31.392Z,-23360.81
2022-11-28T10:00:38.917Z,-23357.31
2022-11-28T10:02:50.844Z,-23344.59
2022-11-28T10:05:03.848Z,-23342.19
2022-11-28T10:07:16.720Z,-23339.97
2022-11-28T10:09:33.598Z,-23340.91
2022-11-28T10:11:48.484Z,-23343.94
2022-11-28T10:14:14.289Z,-23350.31
2022-11-28T10:16:23.006Z,-23342.03
2022-11-28T10:18:35.979Z,-23346.31
2022-11-28T10:20:42.643Z,-23339.97
2022-11-28T10:22:51.127Z,-23341.72
2022-11-28T10:24:57.358Z,-23348.41
2022-11-28T10:27:05.536Z,-23354.94
2022-11-28T10:29:19.278Z,-23353.19
2022-11-28T10:31:30.586Z,-23357.78
2022-11-28T10:33:41.155Z,-23359.53
2022-11-28T10:35:47.400Z,-23360.16
2022-11-28T10:37:53.177Z,-23358.59
2022-11-28T10:39:57.150Z,-23358.75
2022-11-28T10:42:15.404Z,-23360.00
2022-11-28T10:44:28.258Z,-23344.41
2022-11-28T10:46:41.416Z,-23346.81
2022-11-28T10:48:50.492Z,-23351.25
2022-11-28T10:51:03.563Z,-23365.44
2022-11-28T10:53:16.428Z,-23357.94
2022-11-28T10:55:30.271Z,-23356.03
2022-11-28T10:57:40.793Z,-23365.91
2022-11-28T11:00:00.581Z,-23360.50
2022-11-28T11:02:19.706Z,-23374.97
2022-11-28T11:04:26.564Z,-23367.16
2022-11-28T11:06:40.814Z,-23362.06
2022-11-28T11:08:48.760Z,-23360.97
2022-11-28T11:10:54.045Z,-23362.06
2022-11-28T11:12:56.790Z,-23365.56
2022-11-28T11:14:59.567Z,-23368.13
2022-11-28T11:17:02.630Z,-23369.88
2022-11-28T11:19:05.433Z,-23366.84
2022-11-28T11:21:15.156Z,-23373.22
2022-11-28T11:23:19.928Z,-23378.63
2022-11-28T11:25:26.269Z,-23376.22
2022-11-28T11:27:28.946Z,-23372.72
2022-11-28T11:29:35.520Z,-23371.00
2022-11-28T11:31:44.889Z,-23380.22
2022-11-28T11:33:48.591Z,-23380.38
2022-11-28T11:35:51.365Z,-23376.06
2022-11-28T11:37:54.217Z,-23372.56
2022-11-28T11:39:56.968Z,-23387.19
2022-11-28T11:42:21.689Z,-23377.34
2022-11-28T11:44:30.737Z,-23373.69
2022-11-28T11:46:33.488Z,-23377.34
2022-11-28T11:48:37.663Z,-23385.94
2022-11-28T11:50:54.098Z,-23368.44
2022-11-28T11:53:05.572Z,-23369.56
2022-11-28T11:55:14.971Z,-23369.25
2022-11-28T11:57:32.544Z,-23370.03
2022-11-28T11:59:45.286Z,-23370.03
2022-11-28T12:01:54.343Z,-23369.25
2022-11-28T12:04:05.631Z,-23369.72
2022-11-28T12:06:22.983Z,-23370.50
2022-11-28T12:08:32.674Z,-23373.69
2022-11-28T12:10:41.876Z,-23373.22
2022-11-28T12:12:45.966Z,-23372.56
2022-11-28T12:14:50.210Z,-23376.22
2022-11-28T12:16:57.729Z,-23372.56
2022-11-28T12:19:14.020Z,-23374.16
2022-11-28T12:21:25.804Z,-23378.31
2022-11-28T12:23:57.915Z,-23377.19
2022-11-28T12:26:11.192Z,-23380.84
2022-11-28T12:28:28.268Z,-23382.44
2022-11-28T12:30:51.470Z,-23382.91
2022-11-28T12:33:09.616Z,-23382.13
2022-11-28T12:35:25.721Z,-23384.66
2022-11-28T12:38:09.172Z,-23384.66
2022-11-28T12:40:09.596Z,-23388.00
2022-11-28T12:42:23.977Z,-23391.66
2022-11-28T12:44:39.644Z,-23391.16
2022-11-28T12:46:49.207Z,-23388.78
2022-11-28T12:49:04.510Z,-23391.16
2022-11-28T12:51:17.959Z,-23394.19
2022-11-28T12:53:46.677Z,-23393.41
2022-11-28T12:55:57.216Z,-23394.34
2022-11-28T12:58:08.719Z,-23392.75
2022-11-28T13:00:19.551Z,-23394.50
2022-11-28T13:02:33.160Z,-23395.16
2022-11-28T13:04:56.053Z,-23394.34
2022-11-28T13:07:08.141Z,-23395.47
2022-11-28T13:09:31.649Z,-23397.69
2022-11-28T13:11:53.700Z,-23396.88
2022-11-28T13:14:03.985Z,-23398.97
2022-11-28T13:16:26.635Z,-23396.41
2022-11-28T13:18:39.995Z,-23400.22
2022-11-28T13:20:43.889Z,-23415.16
2022-11-28T13:23:00.328Z,-23417.38
2022-11-28T13:25:13.289Z,-23421.66
2022-11-28T13:27:24.877Z,-23425.00
2022-11-28T13:29:35.154Z,-23416.75
2022-11-28T13:31:44.275Z,-23407.84
2022-11-28T13:33:51.863Z,-23421.03
2022-11-28T13:35:55.179Z,-23416.59
2022-11-28T13:40:32.308Z,-23414.84
2022-11-28T13:43:03.519Z,-23421.81
2022-11-28T13:45:22.745Z,-23418.81
2022-11-28T13:47:33.539Z,-23416.44
2022-11-28T13:49:36.350Z,-23415.63
2022-11-28T13:51:39.223Z,-23409.75
2022-11-28T13:53:43.134Z,-23414.69
2022-11-28T13:55:47.673Z,-23411.66
2022-11-28T13:57:50.505Z,-23408.81
2022-11-28T13:59:57.762Z,-23404.69
2022-11-28T14:02:02.863Z,-23414.53
2022-11-28T14:04:11.007Z,-23406.28
2022-11-28T14:06:16.037Z,-23408.00
2022-11-28T14:08:29.796Z,-23416.44
2022-11-28T14:11:00.657Z,-23411.66
2022-11-28T14:13:22.783Z,-23414.38
2022-11-28T14:15:33.148Z,-23414.69
2022-11-28T14:17:51.651Z,-23416.75
2022-11-28T14:20:09.847Z,-23411.66
2022-11-28T14:22:28.459Z,-23415.47
2022-11-28T14:24:49.695Z,-23417.06
2022-11-28T14:26:59.280Z,-23414.84
2022-11-28T14:29:03.961Z,-23409.59
2022-11-28T14:31:23.038Z,-23402.44
2022-11-28T14:33:32.765Z,-23400.22
2022-11-28T14:36:22.151Z,-23399.44
2022-11-28T14:38:47.299Z,-23396.72
2022-11-28T14:41:06.177Z,-23389.59
2022-11-28T14:43:27.306Z,-23390.06
2022-11-28T14:45:45.936Z,-23394.50
2022-11-28T14:48:03.417Z,-23391.81
2022-11-28T14:50:47.300Z,-23388.78
2022-11-28T14:52:54.252Z,-23390.84
2022-11-28T14:54:57.254Z,-23380.53
2022-11-28T14:57:00.511Z,-23379.88
2022-11-28T14:59:04.459Z,-23381.47
2022-11-28T15:01:15.842Z,-23382.13
2022-11-28T15:03:32.904Z,-23380.38
2022-11-28T15:05:45.129Z,-23380.06
2022-11-28T15:08:01.695Z,-23383.88
2022-11-28T15:10:11.060Z,-23382.91
2022-11-28T15:12:23.569Z,-23379.25
2022-11-28T15:14:27.540Z,-23377.81
2022-11-28T15:16:31.894Z,-23375.13
2022-11-28T15:18:36.233Z,-23376.22
2022-11-28T15:20:47.605Z,-23375.75
2022-11-28T15:22:50.387Z,-23374.81
2022-11-28T15:24:54.411Z,-23375.75
2022-11-28T15:26:58.902Z,-23376.72
2022-11-28T15:29:12.325Z,-23375.44
2022-11-28T15:31:22.676Z,-23376.22
2022-11-28T15:33:27.331Z,-23376.41
2022-11-28T15:35:30.461Z,-23375.44
2022-11-28T15:37:35.667Z,-23376.72
2022-11-28T15:39:40.999Z,-23376.06
2022-11-28T15:41:47.207Z,-23376.41
2022-11-28T15:43:50.849Z,-23374.31
2022-11-28T15:45:58.511Z,-23374.63
2022-11-28T15:48:01.311Z,-23373.69
2022-11-28T15:50:17.068Z,-23377.34
2022-11-28T15:52:19.777Z,-23375.75
2022-11-28T15:54:32.865Z,-23376.56
2022-11-28T15:56:35.851Z,-23373.22
2022-11-28T15:58:41.225Z,-23373.53
2022-11-28T16:00:48.678Z,-23374.16
2022-11-28T16:02:51.538Z,-23374.81
2022-11-28T16:05:00.738Z,-23374.81
2022-11-28T16:07:03.709Z,-23372.41
2022-11-28T16:09:09.376Z,-23371.31
2022-11-28T16:11:16.563Z,-23370.50
2022-11-28T16:13:24.355Z,-23370.03
2022-11-28T16:15:29.596Z,-23371.31
2022-11-28T16:17:35.064Z,-23380.84
2022-11-28T16:19:39.124Z,-23373.53
2022-11-28T16:21:47.530Z,-23370.03
2022-11-28T16:23:50.880Z,-23373.53
2022-11-28T16:26:00.537Z,-23374.50
2022-11-28T16:28:03.940Z,-23373.84
2022-11-28T16:30:29.829Z,-23373.53
2022-11-28T16:32:39.198Z,-23373.53
2022-11-28T16:34:46.796Z,-23369.41
2022-11-28T16:36:50.492Z,-23376.72
2022-11-28T16:38:55.334Z,-23374.50
2022-11-28T16:41:01.535Z,-23369.06
2022-11-28T16:43:06.136Z,-23367.97
2022-11-28T16:45:12.059Z,-23365.25
2022-11-28T16:47:28.102Z,-23370.03
2022-11-28T16:49:36.759Z,-23368.75
2022-11-28T16:51:41.726Z,-23370.50
2022-11-28T16:53:45.679Z,-23367.34
2022-11-28T16:55:48.439Z,-23367.16
2022-11-28T16:57:57.910Z,-23367.81
2022-11-28T17:00:00.556Z,-23369.25
2022-11-28T17:02:03.432Z,-23368.44
2022-11-28T17:04:07.861Z,-23366.38
2022-11-28T17:06:17.673Z,-23365.25
2022-11-28T17:08:20.476Z,-23364.00
2022-11-28T17:10:24.894Z,-23365.25
2022-11-28T17:12:30.704Z,-23366.84
2022-11-28T17:14:33.411Z,-23367.81
2022-11-28T17:16:36.987Z,-23367.97
2022-11-28T17:18:39.844Z,-23367.00
2022-11-28T17:20:44.188Z,-23366.53
2022-11-28T17:22:49.868Z,-23365.25
2022-11-28T17:24:56.687Z,-23364.63
2022-11-28T17:26:59.482Z,-23365.56
2022-11-28T17:29:02.389Z,-23368.28
2022-11-28T17:31:05.410Z,-23366.38
2022-11-28T17:33:08.228Z,-23367.34
2022-11-28T17:35:14.969Z,-23367.66
2022-11-28T17:37:18.978Z,-23366.22
2022-11-28T17:39:22.080Z,-23367.81
2022-11-28T17:41:26.120Z,-23368.44
2022-11-28T17:43:29.118Z,-23369.56
2022-11-28T17:45:36.036Z,-23368.44
2022-11-28T17:47:38.792Z,-23370.03
2022-11-28T17:49:46.093Z,-23371.47
2022-11-28T17:51:49.623Z,-23369.41
2022-11-28T17:53:53.753Z,-23371.00
2022-11-28T17:55:59.068Z,-23372.56
2022-11-28T17:58:01.829Z,-23374.63
2022-11-28T18:00:06.431Z,-23376.06
2022-11-28T18:02:11.919Z,-23380.22
2022-11-28T18:04:15.050Z,-23381.78
2022-11-28T18:06:18.811Z,-23380.22
2022-11-28T18:08:22.588Z,-23377.97
2022-11-28T18:10:26.818Z,-23380.22
2022-11-28T18:12:29.588Z,-23381.47
2022-11-28T18:14:38.087Z,-23384.19
2022-11-28T18:16:43.870Z,-23384.81
2022-11-28T18:18:47.260Z,-23383.06
2022-11-28T18:20:49.960Z,-23384.50
2022-11-28T18:22:52.700Z,-23384.19
2022-11-28T18:24:55.514Z,-23382.75
2022-11-28T18:26:59.643Z,-23380.53
2022-11-28T18:29:02.460Z,-23378.94
2022-11-28T18:31:11.551Z,-23381.16
2022-11-28T18:33:15.582Z,-23376.41
2022-11-28T18:35:19.521Z,-23373.84
2022-11-28T18:37:22.371Z,-23375.59
2022-11-28T18:39:25.197Z,-23374.97
2022-11-28T18:41:28.278Z,-23372.91
2022-11-28T18:43:32.447Z,-23375.75
2022-11-28T18:45:35.629Z,-23372.56
2022-11-28T18:47:38.452Z,-23373.38
2022-11-28T18:49:41.710Z,-23372.72
2022-11-28T18:51:44.659Z,-23372.56
2022-11-28T18:53:48.369Z,-23370.66
2022-11-28T18:56:00.077Z,-23367.81
2022-11-28T18:58:02.823Z,-23369.72
2022-11-28T19:00:08.648Z,-23368.13
2022-11-28T19:02:13.374Z,-23369.06
2022-11-28T19:04:16.859Z,-23371.00
2022-11-28T19:06:20.604Z,-23370.66
2022-11-28T19:08:23.373Z,-23370.03
2022-11-28T19:10:26.283Z,-23369.41
2022-11-28T19:12:28.989Z,-23370.66
2022-11-28T19:14:31.948Z,-23371.00
2022-11-28T19:16:38.008Z,-23368.75
2022-11-28T19:18:41.296Z,-23368.91
2022-11-28T19:20:44.252Z,-23367.66
2022-11-28T19:22:47.070Z,-23370.34
2022-11-28T19:24:49.810Z,-23369.41
2022-11-28T19:26:52.617Z,-23371.63
2022-11-28T19:28:56.229Z,-23371.94
2022-11-28T19:31:06.266Z,-23375.13
2022-11-28T19:33:10.434Z,-23372.91
2022-11-28T19:35:13.235Z,-23371.63
2022-11-28T19:37:16.029Z,-23368.13
2022-11-28T19:39:20.589Z,-23367.50
2022-11-28T19:41:23.753Z,-23366.53
2022-11-28T19:43:26.542Z,-23363.19
2022-11-28T19:45:29.433Z,-23364.00
2022-11-28T19:47:32.253Z,-23363.03
2022-11-28T19:49:36.329Z,-23362.72
2022-11-28T19:51:39.099Z,-23363.34
2022-11-28T19:53:43.435Z,-23363.19
2022-11-28T19:55:46.215Z,-23364.00
2022-11-28T19:57:48.973Z,-23364.94
2022-11-28T19:59:51.693Z,-23361.75
2022-11-28T20:01:54.461Z,-23362.06
2022-11-28T20:03:59.270Z,-23360.66
2022-11-28T20:06:03.522Z,-23360.34
2022-11-28T20:08:07.088Z,-23360.16
2022-11-28T20:10:10.564Z,-23358.59
2022-11-28T20:12:13.321Z,-23362.06
2022-11-28T20:14:18.179Z,-23356.84
2022-11-28T20:16:20.930Z,-23356.19
2022-11-28T20:18:23.739Z,-23355.72
2022-11-28T20:20:26.415Z,-23353.81
2022-11-28T20:22:30.927Z,-23355.72
2022-11-28T20:24:33.711Z,-23355.72
2022-11-28T20:26:38.958Z,-23355.88
2022-11-28T20:28:42.965Z,-23354.44
2022-11-28T20:30:45.819Z,-23353.50
2022-11-28T20:32:48.660Z,-23355.09
2022-11-28T20:34:51.375Z,-23354.44
2022-11-28T20:36:54.699Z,-23355.09
2022-11-28T20:38:59.403Z,-23353.19
2022-11-28T20:41:02.521Z,-23354.75
2022-11-28T20:43:05.307Z,-23355.25
2022-11-28T20:45:08.949Z,-23354.75
2022-11-28T20:47:11.966Z,-23355.09
2022-11-28T20:49:15.664Z,-23354.75
2022-11-28T20:51:20.174Z,-23355.09
2022-11-28T20:53:26.778Z,-23355.72
2022-11-28T20:55:31.265Z,-23358.25
2022-11-28T20:57:33.976Z,-23357.63
2022-11-28T20:59:36.876Z,-23356.84
2022-11-28T21:01:39.591Z,-23357.63
2022-11-28T21:03:42.414Z,-23357.94
2022-11-28T21:05:45.176Z,-23357.16
2022-11-28T21:07:48.007Z,-23355.72
2022-11-28T21:09:51.088Z,-23357.78
2022-11-28T21:11:58.663Z,-23356.84
2022-11-28T21:14:02.737Z,-23357.63
2022-11-28T21:16:07.225Z,-23356.84
2022-11-28T21:18:10.574Z,-23355.09
2022-11-28T21:20:13.924Z,-23355.41
2022-11-28T21:22:16.629Z,-23355.56
2022-11-28T21:24:19.400Z,-23356.03
2022-11-28T21:26:28.811Z,-23355.72
2022-11-28T21:28:36.194Z,-23356.03
2022-11-28T21:30:42.709Z,-23355.88
2022-11-28T21:32:46.714Z,-23355.09
2022-11-28T21:34:49.472Z,-23355.09
2022-11-28T21:36:52.285Z,-23354.44
2022-11-28T21:38:56.994Z,-23355.41
2022-11-28T21:41:00.413Z,-23352.69
2022-11-28T21:43:03.140Z,-23353.97
2022-11-28T21:45:08.662Z,-23352.53
2022-11-28T21:47:11.402Z,-23352.84
2022-11-28T21:49:14.228Z,-23353.50
2022-11-28T21:51:18.083Z,-23352.22
2022-11-28T21:53:21.277Z,-23353.00
2022-11-28T21:55:24.079Z,-23352.53
2022-11-28T21:57:26.814Z,-23353.00
2022-11-28T21:59:29.537Z,-23352.22
2022-11-28T22:01:33.762Z,-23355.41
2022-11-28T22:03:37.060Z,-23353.97
2022-11-28T22:05:39.918Z,-23352.53
2022-11-28T22:07:42.701Z,-23353.50
2022-11-28T22:12:06.706Z,-23355.41
2022-11-28T22:14:09.602Z,-23357.63
2022-11-28T22:16:15.397Z,-23357.00
2022-11-28T22:18:19.510Z,-23355.41
2022-11-28T22:20:22.187Z,-23356.03
2022-11-28T22:22:27.355Z,-23354.75
2022-11-28T22:24:30.206Z,-23356.03
2022-11-28T22:26:33.499Z,-23357.94
2022-11-28T22:28:38.006Z,-23357.94
2022-11-28T22:30:40.696Z,-22476.72
2022-11-28T22:32:43.487Z,-21582.13
2022-11-28T22:34:47.615Z,-20414.41
2022-11-28T22:36:50.303Z,-19616.94
2022-11-28T22:38:56.436Z,-19540.66
2022-11-28T22:40:59.242Z,-17280.78
2022-11-28T22:43:02.023Z,-15359.91
2022-11-28T22:45:05.652Z,-14079.66
2022-11-28T22:47:08.492Z,-16961.63
2022-11-28T22:49:11.387Z,-16640.91
2022-11-28T22:51:19.712Z,-16001.47
2022-11-28T22:53:22.611Z,-13758.19
2022-11-28T22:55:25.328Z,-16002.06
2022-11-28T22:57:27.989Z,-18243.78
2022-11-28T22:59:33.620Z,-20245.16
2022-11-28T23:01:36.461Z,-22266.66
2022-11-28T23:03:39.264Z,-23348.47
2022-11-28T23:05:46.532Z,-23360.66
2022-11-28T23:07:53.652Z,-23358.91
2022-11-28T23:09:56.389Z,-23358.91
2022-11-28T23:12:01.184Z,-23359.22
2022-11-28T23:14:04.603Z,-22647.22
2022-11-28T23:16:12.873Z,-21457.66
2022-11-28T23:18:15.747Z,-21042.91
2022-11-28T23:20:18.575Z,-18563.84
2022-11-28T23:22:21.305Z,-17602.09
2022-11-28T23:24:25.484Z,-15360.84
2022-11-28T23:26:30.268Z,-13439.03
2022-11-28T23:28:33.463Z,-14719.50
2022-11-28T23:30:36.208Z,-12797.19
2022-11-28T23:32:39.025Z,-13116.84
2022-11-28T23:34:42.059Z,-13117.31
2022-11-28T23:36:47.062Z,-12155.03
2022-11-28T23:38:51.296Z,-12475.66
2022-11-28T23:40:57.645Z,-11513.84
2022-11-28T23:43:00.354Z,-11193.06
2022-11-28T23:45:03.082Z,-11834.25
2022-11-28T23:47:05.923Z,-10231.63
2022-11-28T23:49:09.540Z,-11514.34
2022-11-28T23:51:14.006Z,-10873.28
2022-11-28T23:53:16.807Z,-11514.16
2022-11-28T23:55:19.494Z,-9269.28
2022-11-28T23:57:23.629Z,-12796.88
2022-11-28T23:59:26.533Z,-11513.84
